Time;durP1;ratioP1;P1;durP2;ratioP2;P2;SDS_P1;SDS_P2;PMS_P1;PMS_P2;Temp;Humidity;BMP_temperature;BMP_pressure;BME280_temperature;BME280_humidity;BME280_pressure;Samples;Min_cycle;Max_cycle;Signal;HPM_P1;HPM_P2
2023/02/05 00:01:53;;;;;;;10.10;7.30;;;;;;;-4.78;94.48;101263.55;450470;1251;143253;-66
2023/02/05 00:12:00;;;;;;;9.30;7.60;;;;;;;-5.06;94.43;101275.80;440189;1251;142577;-67
2023/02/05 00:22:06;;;;;;;10.60;6.90;;;;;;;-5.42;94.28;101279.90;443426;1251;143961;-66
2023/02/05 00:32:12;;;;;;;19.20;10.60;;;;;;;-5.80;94.56;101277.77;441609;1251;142566;-65
2023/02/05 00:42:17;;;;;;;15.20;9.50;;;;;;;-6.08;94.77;101279.52;450658;1251;142653;-66
2023/02/05 00:52:23;;;;;;;17.30;11.00;;;;;;;-6.27;95.19;101284.89;449871;1250;143029;-66
2023/02/05 01:02:29;;;;;;;14.70;9.60;;;;;;;-6.45;95.53;101285.85;450658;1250;143604;-66
2023/02/05 01:12:35;;;;;;;10.00;8.20;;;;;;;-6.62;95.77;101294.66;447688;1250;144113;-65
2023/02/05 01:22:42;;;;;;;14.00;9.50;;;;;;;-6.80;95.97;101310.76;450686;1250;143420;-67
2023/02/05 01:32:48;;;;;;;15.90;10.70;;;;;;;-6.89;96.35;101319.13;450311;1250;142964;-65
2023/02/05 01:42:54;;;;;;;17.20;9.50;;;;;;;-7.00;96.56;101325.70;449390;1251;142854;-65
2023/02/05 01:53:05;;;;;;;14.00;10.40;;;;;;;-7.05;96.93;101316.02;448962;1251;142894;-69
2023/02/05 02:03:13;;;;;;;15.40;9.10;;;;;;;-7.17;96.89;101307.23;450122;1251;143145;-66
2023/02/05 02:13:20;;;;;;;14.40;10.50;;;;;;;-7.28;97.22;101301.91;449372;1251;144711;-63
2023/02/05 02:23:36;;;;;;;17.20;10.80;;;;;;;-7.35;97.31;101301.30;450092;1251;144008;-63
2023/02/05 02:33:47;;;;;;;14.70;10.20;;;;;;;-7.42;97.45;101313.98;442438;1251;143974;-64
2023/02/05 02:43:55;;;;;;;14.50;9.90;;;;;;;-7.52;97.65;101323.49;445862;1251;142922;-63
2023/02/05 02:54:08;;;;;;;16.10;11.70;;;;;;;-7.55;98.26;101338.36;450205;1251;143591;-62
2023/02/05 03:04:18;;;;;;;14.30;11.30;;;;;;;-7.19;99.12;101336.47;449415;1250;143213;-62
2023/02/05 03:14:25;;;;;;;16.80;12.00;;;;;;;-6.97;99.02;101337.05;439961;1250;145696;-63
2023/02/05 03:24:32;;;;;;;17.20;12.50;;;;;;;-7.03;98.49;101332.43;444300;1250;142392;-63
2023/02/05 03:34:47;;;;;;;14.30;11.00;;;;;;;-7.22;98.12;101317.10;450623;1250;143341;-63
2023/02/05 03:45:12;;;;;;;15.70;10.60;;;;;;;-7.53;97.80;101316.83;450803;1250;142751;-64
2023/02/05 03:55:22;;;;;;;12.50;9.30;;;;;;;-7.78;97.80;101321.81;450087;1250;143708;-63
2023/02/05 04:05:28;;;;;;;14.00;8.90;;;;;;;-7.94;97.88;101326.48;450758;1250;142996;-64
2023/02/05 04:15:34;;;;;;;16.30;11.30;;;;;;;-8.07;98.02;101325.77;450043;1250;143898;-64
2023/02/05 04:25:41;;;;;;;13.00;8.70;;;;;;;-8.21;98.03;101339.70;450827;1250;145670;-64
2023/02/05 04:35:46;;;;;;;13.30;9.20;;;;;;;-8.04;98.68;101343.76;450724;1250;144349;-63
2023/02/05 04:45:52;;;;;;;19.70;10.50;;;;;;;-7.76;98.72;101355.58;449929;1250;195647;-63
2023/02/05 04:56:08;;;;;;;13.40;8.40;;;;;;;-7.54;98.55;101348.77;437071;1250;146404;-62
2023/02/05 05:06:15;;;;;;;11.70;8.80;;;;;;;-7.41;98.44;101347.38;450756;1250;143756;-63
2023/02/05 05:16:21;;;;;;;14.60;10.00;;;;;;;-7.32;98.13;101339.71;450018;1250;143576;-63
2023/02/05 05:26:28;;;;;;;12.40;9.10;;;;;;;-7.30;97.80;101342.02;443895;1250;143166;-63
2023/02/05 05:36:34;;;;;;;12.40;8.90;;;;;;;-7.17;97.83;101350.65;438474;1250;142635;-63
2023/02/05 05:46:40;;;;;;;12.70;9.40;;;;;;;-7.00;97.80;101356.70;450691;1250;143891;-63
2023/02/05 05:56:46;;;;;;;9.70;7.70;;;;;;;-6.84;97.69;101368.52;447945;1250;143323;-62
2023/02/05 06:06:53;;;;;;;11.70;9.10;;;;;;;-6.68;97.47;101407.05;448889;1250;142754;-64
2023/02/05 06:16:58;;;;;;;10.40;8.20;;;;;;;-6.57;96.95;101424.15;450688;1250;143065;-62
2023/02/05 06:27:04;;;;;;;9.90;7.90;;;;;;;-6.50;96.60;101420.63;450619;1250;143051;-64
2023/02/05 06:37:10;;;;;;;10.50;6.70;;;;;;;-6.41;96.42;101407.48;449668;1250;145056;-63
2023/02/05 06:47:16;;;;;;;9.50;6.70;;;;;;;-6.28;96.24;101428.24;450463;1250;143261;-63
2023/02/05 06:57:21;;;;;;;12.50;8.70;;;;;;;-6.13;96.03;101445.45;450415;1250;143325;-63
2023/02/05 07:07:27;;;;;;;12.00;8.30;;;;;;;-5.98;95.66;101451.22;449738;1250;199606;-63
2023/02/05 07:17:33;;;;;;;10.90;7.50;;;;;;;-5.87;95.44;101458.23;450469;1251;147470;-63
2023/02/05 07:27:39;;;;;;;10.90;7.60;;;;;;;-5.72;95.24;101472.19;449646;1253;143699;-64
2023/02/05 07:37:45;;;;;;;11.70;6.90;;;;;;;-5.63;95.19;101482.37;439769;1250;145604;-64
2023/02/05 07:47:52;;;;;;;16.50;9.00;;;;;;;-5.55;94.95;101495.98;447272;1250;142907;-64
2023/02/05 07:57:58;;;;;;;12.80;9.20;;;;;;;-5.50;94.80;101502.43;450136;1249;143530;-63
2023/02/05 08:08:04;;;;;;;12.20;8.30;;;;;;;-5.38;94.75;101503.31;450731;1249;143471;-64
2023/02/05 08:18:10;;;;;;;13.10;8.30;;;;;;;-5.23;94.75;101515.08;450841;1250;143465;-64
2023/02/05 08:28:14;;;;;;;;;;;;;;;-4.96;94.56;101516.58;450036;1250;143297;-64
2023/02/05 08:38:20;;;;;;;15.40;10.30;;;;;;;-4.59;94.37;101524.68;451068;1249;129625;-66
2023/02/05 08:48:24;;;;;;;;;;;;;;;-4.31;93.42;101530.11;450775;1250;143886;-66
2023/02/05 08:58:31;;;;;;;7.60;6.20;;;;;;;-4.09;92.73;101537.73;450690;1250;130682;-67
2023/02/05 09:08:37;;;;;;;8.00;5.90;;;;;;;-3.68;92.23;101536.77;450802;1250;143424;-66
2023/02/05 09:18:43;;;;;;;9.00;5.80;;;;;;;-3.45;91.32;101550.19;450082;1251;142741;-66
2023/02/05 09:28:49;;;;;;;6.00;5.40;;;;;;;-3.13;90.69;101550.27;447322;1250;144073;-66
2023/02/05 09:38:55;;;;;;;6.40;5.60;;;;;;;-2.70;89.86;101552.96;445982;1250;143325;-66
2023/02/05 09:49:21;;;;;;;6.00;3.90;;;;;;;-2.43;88.12;101549.09;433292;1253;142166;-67
2023/02/05 09:59:28;;;;;;;7.50;4.90;;;;;;;-2.37;86.87;101546.12;442848;1251;142321;-66
2023/02/05 10:09:53;;;;;;;8.00;5.70;;;;;;;-2.34;86.33;101554.95;437734;1253;143877;-66
2023/02/05 10:20:12;;;;;;;7.80;5.30;;;;;;;-2.30;85.68;101547.30;451076;1251;143421;-67
2023/02/05 10:30:26;;;;;;;5.40;4.50;;;;;;;-2.31;85.09;101542.30;451073;1249;142649;-67
2023/02/05 10:40:38;;;;;;;5.00;4.00;;;;;;;-2.29;83.98;101527.74;450178;1249;198218;-67
2023/02/05 10:50:53;;;;;;;5.30;3.80;;;;;;;-2.25;83.83;101518.05;435930;1250;142295;-67
2023/02/05 11:01:00;;;;;;;6.90;5.00;;;;;;;-1.96;83.23;101510.73;444288;1250;144685;-67
2023/02/05 11:11:07;;;;;;;5.80;3.90;;;;;;;-1.96;81.31;101494.07;451107;1250;143359;-66
2023/02/05 11:21:13;;;;;;;9.10;5.30;;;;;;;-2.00;81.36;101483.36;444688;1251;141962;-65
2023/02/05 11:31:25;;;;;;;5.00;3.60;;;;;;;-2.01;80.69;101476.48;436978;1248;147547;-66
2023/02/05 11:41:46;;;;;;;8.60;5.00;;;;;;;-1.90;79.54;101471.52;451025;1250;142902;-66
2023/02/05 11:51:56;;;;;;;5.80;4.50;;;;;;;-2.21;78.35;101475.41;450155;1250;142493;-65
2023/02/05 12:02:28;;;;;;;5.10;4.00;;;;;;;-2.20;78.00;101472.86;450836;1250;143075;-65
2023/02/05 12:12:42;;;;;;;6.50;4.40;;;;;;;-2.35;78.51;101472.06;446400;1249;142740;-66
2023/02/05 12:23:14;;;;;;;6.10;5.00;;;;;;;-2.39;78.90;101467.00;450828;1251;142803;-66
2023/02/05 12:33:37;;;;;;;4.10;3.60;;;;;;;-2.55;78.81;101465.65;450848;1251;145210;-66
2023/02/05 12:43:46;;;;;;;5.70;4.10;;;;;;;-2.65;77.79;101459.80;450348;1249;212188;-65
2023/02/05 12:54:11;;;;;;;6.70;5.30;;;;;;;-2.71;78.16;101466.02;450852;1252;142681;-65
2023/02/05 13:04:25;;;;;;;9.80;5.60;;;;;;;-2.64;78.30;101469.26;449726;1251;143054;-65
2023/02/05 13:14:36;;;;;;;5.70;4.60;;;;;;;-2.47;77.76;101466.67;450518;1251;153399;-66
2023/02/05 13:35:11;;;;;;;11.00;7.40;;;;;;;-2.99;77.06;101474.34;450624;1253;142388;-66
2023/02/05 13:45:52;;;;;;;6.00;4.80;;;;;;;-3.23;76.67;101463.52;450702;1251;144310;-65
2023/02/05 13:56:24;;;;;;;8.00;4.30;;;;;;;-3.40;77.09;101456.44;450386;1250;211813;-66
2023/02/05 14:06:33;;;;;;;7.00;5.00;;;;;;;-3.52;76.92;101446.24;450061;1248;143532;-65
2023/02/05 14:16:39;;;;;;;6.90;4.70;;;;;;;-3.64;77.09;101443.91;447902;1251;142396;-66
2023/02/05 14:26:47;;;;;;;;;;;;;;;-3.79;76.93;101460.84;446400;1250;143456;-64
2023/02/05 14:36:54;;;;;;;4.30;3.20;;;;;;;-3.95;76.51;101478.75;450462;1249;130316;-65
2023/02/05 14:47:03;;;;;;;5.10;4.30;;;;;;;-4.14;76.70;101481.16;447272;1250;145199;-66
2023/02/05 14:57:21;;;;;;;11.00;7.20;;;;;;;-4.30;77.02;101475.05;446649;1250;143043;-66
2023/02/05 15:07:29;;;;;;;9.40;5.00;;;;;;;-4.51;77.10;101487.31;450116;1251;146358;-66
2023/02/05 15:17:59;;;;;;;13.40;7.30;;;;;;;-4.71;77.64;101495.98;451032;1251;142352;-65
2023/02/05 15:28:09;;;;;;;13.80;7.00;;;;;;;-4.89;78.16;101497.83;450160;1250;143829;-65
2023/02/05 15:38:27;;;;;;;23.40;10.50;;;;;;;-5.02;78.61;101509.39;450922;1250;142576;-66
2023/02/05 15:48:37;;;;;;;34.70;16.90;;;;;;;-5.16;79.22;101526.23;445317;1251;143126;-66
2023/02/05 15:58:48;;;;;;;21.10;14.70;;;;;;;-5.17;79.69;101534.88;450850;1250;144365;-65
2023/02/05 16:08:55;;;;;;;14.20;10.30;;;;;;;-5.02;80.15;101540.99;450840;1251;143684;-66
2023/02/05 16:19:04;;;;;;;12.50;7.00;;;;;;;-4.88;80.54;101545.35;450219;1251;143073;-66
2023/02/05 16:29:19;;;;;;;13.20;7.80;;;;;;;-4.77;80.86;101553.73;444436;1251;142584;-66
2023/02/05 16:39:37;;;;;;;8.90;7.10;;;;;;;-4.67;81.12;101555.90;449135;1251;144047;-67
2023/02/05 16:49:44;;;;;;;10.70;7.70;;;;;;;-4.61;81.13;101561.73;446352;1248;142430;-65
2023/02/05 16:59:54;;;;;;;13.60;9.30;;;;;;;-4.55;81.63;101555.41;450978;1251;143254;-67
2023/02/05 17:10:20;;;;;;;14.80;9.20;;;;;;;-4.54;81.90;101573.72;450120;1250;143578;-66
2023/02/05 17:20:28;;;;;;;13.30;8.70;;;;;;;-4.54;82.07;101577.34;448347;1251;143596;-65
2023/02/05 17:30:34;;;;;;;14.50;8.30;;;;;;;-4.55;82.11;101567.53;438559;1250;143514;-65
2023/02/05 17:40:40;;;;;;;12.80;9.10;;;;;;;-4.57;82.42;101577.75;450969;1250;143176;-65
2023/02/05 17:50:48;;;;;;;13.60;8.20;;;;;;;-4.54;82.50;101584.33;450975;1249;143412;-65
2023/02/05 18:00:59;;;;;;;15.70;10.10;;;;;;;-4.51;82.46;101582.54;450286;1250;187764;-65
2023/02/05 18:11:06;;;;;;;16.80;11.70;;;;;;;-4.46;82.71;101600.64;450862;1250;142958;-66
2023/02/05 18:21:12;;;;;;;17.70;11.10;;;;;;;-4.47;82.50;101594.97;447570;1250;145096;-66
2023/02/05 18:31:18;;;;;;;21.40;13.70;;;;;;;-4.52;82.78;101591.59;439708;1251;142503;-66
2023/02/05 18:41:24;;;;;;;20.90;12.80;;;;;;;-4.52;82.79;101592.41;450942;1250;145039;-66
2023/02/05 18:51:30;;;;;;;32.90;17.90;;;;;;;-4.51;83.02;101588.85;450248;1249;143937;-65
2023/02/05 19:01:38;;;;;;;29.10;16.00;;;;;;;-4.45;83.27;101584.60;439675;1250;143330;-67
2023/02/05 19:11:45;;;;;;;39.50;20.70;;;;;;;-4.40;83.54;101591.75;451121;1250;144687;-66
2023/02/05 19:21:53;;;;;;;26.50;16.20;;;;;;;-4.35;83.73;101594.45;450217;1249;144272;-66
2023/02/05 19:31:58;;;;;;;25.90;15.30;;;;;;;-4.29;83.74;101591.38;450984;1249;144160;-67
2023/02/05 19:42:05;;;;;;;25.30;16.20;;;;;;;-4.25;84.05;101595.77;451010;1249;143087;-67
2023/02/05 19:52:11;;;;;;;22.00;16.10;;;;;;;-4.20;84.20;101599.52;449762;1250;143263;-68
2023/02/05 20:02:19;;;;;;;22.00;15.40;;;;;;;-4.15;83.94;101602.40;450924;1249;143405;-67
2023/02/05 20:12:25;;;;;;;21.70;14.00;;;;;;;-4.16;83.81;101608.88;451006;1250;143631;-66
2023/02/05 20:22:31;;;;;;;27.10;15.40;;;;;;;-4.16;83.84;101615.89;450542;1250;214369;-67
2023/02/05 20:32:35;;;;;;;;;;;;;;;-4.10;84.05;101632.65;451000;1250;143049;-65
2023/02/05 20:42:41;;;;;;;23.40;14.70;;;;;;;-4.07;83.99;101652.23;435688;1249;129702;-66
2023/02/05 20:52:45;;;;;;;;;;;;;;;-4.11;83.99;101643.41;450909;1250;143108;-67
2023/02/05 21:02:52;;;;;;;25.90;15.40;;;;;;;-4.14;83.89;101653.55;451090;1249;129695;-66
2023/02/05 21:12:58;;;;;;;22.90;14.80;;;;;;;-4.21;84.04;101654.91;450254;1249;143410;-69
2023/02/05 21:23:03;;;;;;;24.90;17.60;;;;;;;-4.17;84.02;101661.17;450931;1249;143572;-65
2023/02/05 21:33:10;;;;;;;28.00;18.90;;;;;;;-4.15;84.46;101674.41;451057;1249;143340;-66
2023/02/05 21:43:15;;;;;;;26.30;16.60;;;;;;;-4.14;84.64;101681.45;450235;1249;150449;-65
2023/02/05 21:53:21;;;;;;;24.60;15.60;;;;;;;-4.09;84.83;101696.48;450984;1250;143758;-66
2023/02/05 22:03:28;;;;;;;28.30;17.20;;;;;;;-4.02;85.13;101706.11;450983;1249;142776;-66
2023/02/05 22:13:36;;;;;;;25.80;16.00;;;;;;;-4.01;84.93;101710.41;448765;1249;208021;-66
2023/02/05 22:23:43;;;;;;;24.80;16.30;;;;;;;-4.01;84.95;101725.45;438990;1250;143752;-63
2023/02/05 22:33:50;;;;;;;21.80;14.20;;;;;;;-4.04;85.02;101727.63;439449;1249;142949;-62
2023/02/05 22:43:57;;;;;;;39.00;24.40;;;;;;;-4.06;85.32;101720.70;442224;1249;143050;-64
2023/02/05 22:54:03;;;;;;;48.40;29.00;;;;;;;-4.10;85.38;101715.60;441434;1249;143615;-64
2023/02/05 23:04:10;;;;;;;49.50;28.00;;;;;;;-4.11;85.81;101721.08;450396;1250;144528;-64
2023/02/05 23:14:17;;;;;;;40.80;24.90;;;;;;;-4.12;85.87;101721.70;451240;1249;142735;-64
2023/02/05 23:24:23;;;;;;;44.80;24.90;;;;;;;-4.12;85.69;101712.30;451217;1250;143994;-63
2023/02/05 23:34:29;;;;;;;35.20;20.80;;;;;;;-4.19;85.53;101717.55;450274;1249;199194;-62
2023/02/05 23:44:36;;;;;;;27.30;18.20;;;;;;;-4.22;85.81;101712.69;451136;1249;143330;-64
2023/02/05 23:54:42;;;;;;;35.20;20.20;;;;;;;-4.20;86.10;101703.15;447230;1250;198317;-65
